| time (UTC) | temp F | wind direction | speed knots | gust knots | rain 1hr in | rain 24hr in | rain mn in | humidity % | barometer mb |
| 20260507200153 | 72 | 331 | 4.3 | 7.0 | 0.00 | 0.00 | 0.00 | 25 | 1009.6 |
| 20260507195649 | 72 | 22 | 7.8 | 11.3 | 0.00 | 0.00 | 0.00 | 24 | 1009.6 |
| 20260507195146 | 70 | 16 | 1.7 | 2.6 | 0.00 | 0.00 | 0.00 | 26 | 1009.6 |
| 20260507194643 | 71 | 3 | 5.2 | 6.1 | 0.00 | 0.00 | 0.00 | 25 | 1009.4 |
| 20260507194139 | 72 | 231 | 4.3 | 6.1 | 0.00 | 0.00 | 0.00 | 26 | 1009.6 |
| 20260507193636 | 72 | 354 | 5.2 | 7.0 | 0.00 | 0.00 | 0.00 | 25 | 1009.5 |
| 20260507193133 | 72 | 328 | 4.3 | 7.0 | 0.00 | 0.00 | 0.00 | 25 | 1009.6 |
| 20260507192629 | 73 | 7 | 4.3 | 6.1 | 0.00 | 0.00 | 0.00 | 24 | 1009.6 |
| 20260507192126 | 72 | 131 | 2.6 | 2.6 | 0.00 | 0.00 | 0.00 | 25 | 1009.8 |
| 20260507191621 | 71 | 348 | 7.8 | 8.7 | 0.00 | 0.00 | 0.00 | 24 | 1009.6 |
| 20260507191119 | 71 | 131 | 0.0 | 0.9 | 0.00 | 0.00 | 0.00 | 25 | 1009.7 |
| 20260507190616 | 71 | 21 | 2.6 | 2.6 | 0.00 | 0.00 | 0.00 | 25 | 1009.6 |
| 20260507190115 | 71 | 345 | 2.6 | 5.2 | 0.00 | 0.00 | 0.00 | 26 | 1009.7 |
| 20260507185613 | 70 | 257 | 2.6 | 5.2 | 0.00 | 0.00 | 0.00 | 28 | 1009.9 |
| 20260507185109 | 72 | 294 | 1.7 | 1.7 | 0.00 | 0.00 | 0.00 | 27 | 1009.8 |
| 20260507184607 | 69 | 238 | 2.6 | 2.6 | 0.00 | 0.00 | 0.00 | 29 | 1009.9 |
| 20260507184105 | 70 | 278 | 2.6 | 4.3 | 0.00 | 0.00 | 0.00 | 28 | 1009.7 |
| 20260507183601 | 70 | 327 | 2.6 | 6.1 | 0.00 | 0.00 | 0.00 | 29 | 1009.9 |
| 20260507183058 | 70 | 60 | 2.6 | 4.3 | 0.00 | 0.00 | 0.00 | 28 | 1009.9 |
| 20260507182554 | 70 | 27 | 1.7 | 1.7 | 0.00 | 0.00 | 0.00 | 29 | 1009.8 |
| 20260507182050 | 69 | 344 | 4.3 | 6.1 | 0.00 | 0.00 | 0.00 | 30 | 1010.0 |
| 20260507181547 | 69 | 350 | 3.5 | 6.1 | 0.00 | 0.00 | 0.00 | 32 | 1010.0 |
| 20260507181043 | 68 | 111 | 2.6 | 2.6 | 0.00 | 0.00 | 0.00 | 30 | 1010.1 |
| 20260507180540 | 68 | 51 | 3.5 | 5.2 | 0.00 | 0.00 | 0.00 | 33 | 1010.2 |
| 20260507180037 | 67 | 303 | 3.5 | 4.3 | 0.00 | 0.00 | 0.00 | 34 | 1010.3 |
| 20260507175532 | 68 | 222 | 4.3 | 6.1 | 0.00 | 0.00 | 0.00 | 35 | 1010.5 |
| 20260507175031 | 67 | 225 | 1.7 | 1.7 | 0.00 | 0.00 | 0.00 | 34 | 1010.3 |
| 20260507174527 | 68 | 277 | 2.6 | 2.6 | 0.00 | 0.00 | 0.00 | 36 | 1010.5 |
| 20260507174025 | 67 | 318 | 1.7 | 2.6 | 0.00 | 0.00 | 0.00 | 33 | 1010.4 |
| 20260507173522 | 67 | 10 | 3.5 | 6.1 | 0.00 | 0.00 | 0.00 | 33 | 1010.3 |
| 20260507173020 | 66 | 102 | 1.7 | 2.6 | 0.00 | 0.00 | 0.00 | 34 | 1010.5 |
| 20260507172515 | 66 | 7 | 2.6 | 2.6 | 0.00 | 0.00 | 0.00 | 37 | 1010.4 |
| 20260507172012 | 66 | 337 | 5.2 | 6.1 | 0.00 | 0.00 | 0.00 | 34 | 1010.7 |
| 20260507171507 | 66 | 185 | 1.7 | 1.7 | 0.00 | 0.00 | 0.00 | 37 | 1010.5 |
| 20260507171005 | 65 | 52 | 1.7 | 1.7 | 0.00 | 0.00 | 0.00 | 37 | 1010.5 |
| 20260507170502 | 64 | 335 | 4.3 | 5.2 | 0.00 | 0.00 | 0.00 | 37 | 1010.8 |
| 20260507165958 | 64 | 311 | 1.7 | 2.6 | 0.00 | 0.00 | 0.00 | 39 | 1010.5 |
| 20260507165454 | 64 | 334 | 3.5 | 4.3 | 0.00 | 0.00 | 0.00 | 39 | 1010.2 |
| 20260507164950 | 63 | 2 | 2.6 | 6.1 | 0.00 | 0.00 | 0.00 | 40 | 1010.7 |
| 20260507164447 | 63 | 357 | 1.7 | 2.6 | 0.00 | 0.00 | 0.00 | 43 | 1010.4 |
| 20260507163944 | 63 | 349 | 4.3 | 5.2 | 0.00 | 0.00 | 0.00 | 41 | 1010.3 |
| 20260507163441 | 63 | 295 | 2.6 | 2.6 | 0.00 | 0.00 | 0.00 | 43 | 1010.7 |
| 20260507162938 | 62 | 337 | 1.7 | 1.7 | 0.00 | 0.00 | 0.00 | 43 | 1010.3 |
| 20260507162434 | 61 | 335 | 2.6 | 2.6 | 0.00 | 0.00 | 0.00 | 43 | 1010.8 |
| 20260507161931 | 61 | 282 | 2.6 | 2.6 | 0.00 | 0.00 | 0.00 | 45 | 1010.7 |
| 20260507161428 | 60 | 212 | 3.5 | 4.3 | 0.00 | 0.00 | 0.00 | 49 | 1010.7 |
| 20260507160924 | 60 | 221 | 2.6 | 4.3 | 0.00 | 0.00 | 0.00 | 48 | 1010.8 |
| 20260507160420 | 59 | 267 | 2.6 | 2.6 | 0.00 | 0.00 | 0.00 | 48 | 1010.5 |
| 20260507155916 | 60 | 251 | 2.6 | 4.3 | 0.00 | 0.00 | 0.00 | 51 | 1010.7 |
| 20260507155412 | 59 | 250 | 2.6 | 2.6 | 0.00 | 0.00 | 0.00 | 51 | 1010.7 |
| 20260507154909 | 58 | 215 | 1.7 | 2.6 | 0.00 | 0.00 | 0.00 | 55 | 1010.7 |
| 20260507154406 | 57 | 214 | 3.5 | 4.3 | 0.00 | 0.00 | 0.00 | 56 | 1010.5 |
| 20260507153903 | 57 | 232 | 2.6 | 4.3 | 0.00 | 0.00 | 0.00 | 55 | 1010.8 |
| 20260507153359 | 56 | 195 | 3.5 | 5.2 | 0.00 | 0.00 | 0.00 | 58 | 1010.9 |
| 20260507152856 | 55 | 254 | 2.6 | 2.6 | 0.00 | 0.00 | 0.00 | 58 | 1010.8 |
| 20260507152352 | 54 | 183 | 2.6 | 4.3 | 0.00 | 0.00 | 0.00 | 59 | 1011.1 |
| 20260507151848 | 54 | 286 | 3.5 | 5.2 | 0.00 | 0.00 | 0.00 | 58 | 1010.9 |
| 20260507151345 | 53 | 200 | 2.6 | 4.3 | 0.00 | 0.00 | 0.00 | 60 | 1010.9 |
| 20260507150842 | 52 | 249 | 2.6 | 2.6 | 0.00 | 0.00 | 0.00 | 63 | 1011.1 |
| 20260507150339 | 52 | 206 | 2.6 | 4.3 | 0.00 | 0.00 | 0.00 | 63 | 1011.0 |
| 20260507145835 | 51 | 264 | 3.5 | 5.2 | 0.00 | 0.00 | 0.00 | 64 | 1011.1 |
| 20260507145331 | 51 | 200 | 0.9 | 1.7 | 0.00 | 0.00 | 0.00 | 64 | 1011.2 |
| 20260507144828 | 51 | 345 | 3.5 | 4.3 | 0.00 | 0.00 | 0.00 | 65 | 1011.0 |
| 20260507144326 | 50 | 257 | 2.6 | 2.6 | 0.00 | 0.00 | 0.00 | 67 | 1011.1 |
| 20260507143822 | 49 | 261 | 4.3 | 6.1 | 0.00 | 0.00 | 0.00 | 68 | 1011.0 |
| 20260507143319 | 49 | 219 | 3.5 | 4.3 | 0.00 | 0.00 | 0.00 | 68 | 1011.2 |
| 20260507142815 | 48 | 258 | 2.6 | 5.2 | 0.00 | 0.00 | 0.00 | 69 | 1011.1 |
| 20260507142312 | 48 | 210 | 3.5 | 5.2 | 0.00 | 0.00 | 0.00 | 71 | 1011.1 |
| 20260507141809 | 47 | 200 | 3.5 | 5.2 | 0.00 | 0.00 | 0.00 | 72 | 1011.1 |
| 20260507141305 | 47 | 310 | 3.5 | 5.2 | 0.00 | 0.00 | 0.00 | 72 | 1011.1 |
| 20260507140801 | 46 | 270 | 1.7 | 1.7 | 0.00 | 0.00 | 0.00 | 73 | 1011.1 |
| 20260507140259 | 46 | 220 | 3.5 | 4.3 | 0.00 | 0.00 | 0.00 | 73 | 1011.2 |
| 20260507135756 | 45 | 311 | 0.9 | 1.7 | 0.00 | 0.00 | 0.00 | 76 | 1011.0 |
| 20260507135253 | 45 | 211 | 1.7 | 2.6 | 0.00 | 0.00 | 0.00 | 78 | 1011.1 |
| 20260507134749 | 44 | 202 | 2.6 | 2.6 | 0.00 | 0.00 | 0.00 | 78 | 1011.2 |
| 20260507134246 | 44 | 177 | 1.7 | 2.6 | 0.00 | 0.00 | 0.00 | 79 | 1010.8 |
| 20260507133741 | 43 | 221 | 2.6 | 5.2 | 0.00 | 0.00 | 0.00 | 81 | 1011.2 |
| 20260507133238 | 42 | 248 | 2.6 | 4.3 | 0.00 | 0.00 | 0.00 | 82 | 1011.1 |
| 20260507132736 | 42 | 180 | 2.6 | 4.3 | 0.00 | 0.00 | 0.00 | 83 | 1011.2 |
| 20260507132233 | 42 | 238 | 2.6 | 2.6 | 0.00 | 0.00 | 0.00 | 84 | 1010.9 |
| 20260507131729 | 41 | 202 | 2.6 | 5.2 | 0.00 | 0.00 | 0.00 | 85 | 1011.0 |
| 20260507131227 | 41 | 216 | 2.6 | 2.6 | 0.00 | 0.00 | 0.00 | 85 | 1011.2 |
| 20260507130723 | 40 | 244 | 1.7 | 2.6 | 0.00 | 0.00 | 0.00 | 86 | 1011.1 |
| 20260507130221 | 40 | 227 | 2.6 | 5.2 | 0.00 | 0.00 | 0.00 | 87 | 1011.1 |
| 20260507125720 | 39 | 146 | 0.9 | 1.7 | 0.00 | 0.00 | 0.00 | 88 | 1011.2 |
| 20260507125217 | 39 | 193 | 0.9 | 1.7 | 0.00 | 0.00 | 0.00 | 88 | 1011.2 |
| 20260507124713 | 39 | 224 | 2.6 | 2.6 | 0.00 | 0.00 | 0.00 | 88 | 1011.1 |
| 20260507124210 | 38 | 202 | 3.5 | 4.3 | 0.00 | 0.00 | 0.00 | 89 | 1011.4 |
| 20260507123708 | 38 | 213 | 2.6 | 2.6 | 0.00 | 0.00 | 0.00 | 89 | 1011.0 |
| 20260507123206 | 38 | 192 | 1.7 | 1.7 | 0.00 | 0.00 | 0.00 | 90 | 1011.3 |
| 20260507122700 | 37 | 225 | 2.6 | 2.6 | 0.00 | 0.00 | 0.00 | 90 | 1011.1 |
| 20260507122157 | 37 | 210 | 2.6 | 2.6 | 0.00 | 0.00 | 0.00 | 90 | 1011.2 |
| 20260507121653 | 37 | 276 | 2.6 | 5.2 | 0.00 | 0.00 | 0.00 | 91 | 1011.3 |
| 20260507121149 | 36 | 219 | 2.6 | 2.6 | 0.00 | 0.00 | 0.00 | 91 | 1011.5 |
| 20260507120645 | 36 | 193 | 2.6 | 2.6 | 0.00 | 0.00 | 0.00 | 91 | 1011.3 |
| 20260507120142 | 36 | 185 | 1.7 | 2.6 | 0.00 | 0.00 | 0.00 | 91 | 1011.3 |
| 20260507115638 | 36 | 207 | 0.9 | 0.9 | 0.00 | 0.00 | 0.00 | 92 | 1011.4 |
| 20260507115134 | 36 | 197 | 0.9 | 1.7 | 0.00 | 0.00 | 0.00 | 92 | 1011.3 |
| 20260507114630 | 36 | 239 | 0.9 | 1.7 | 0.00 | 0.00 | 0.00 | 92 | 1011.4 |
| 20260507114127 | 35 | 209 | 2.6 | 4.3 | 0.00 | 0.00 | 0.00 | 93 | 1011.3 |
| 20260507113625 | 35 | 212 | 0.9 | 1.7 | 0.00 | 0.00 | 0.00 | 93 | 1011.5 |
| 20260507113122 | 35 | 192 | 0.9 | 0.9 | 0.00 | 0.00 | 0.00 | 93 | 1011.6 |
| 20260507112620 | 35 | 249 | 1.7 | 2.6 | 0.00 | 0.00 | 0.00 | 93 | 1011.7 |
| 20260507112116 | 35 | 149 | 1.7 | 1.7 | 0.00 | 0.00 | 0.00 | 93 | 1011.9 |
| 20260507111613 | 35 | 211 | 1.7 | 1.7 | 0.00 | 0.00 | 0.00 | 93 | 1011.9 |
| 20260507111110 | 35 | 182 | 2.6 | 4.3 | 0.00 | 0.00 | 0.00 | 93 | 1011.9 |
| 20260507110606 | 35 | 167 | 0.9 | 1.7 | 0.00 | 0.00 | 0.00 | 93 | 1011.6 |
| 20260507105600 | 35 | 199 | 1.7 | 1.7 | 0.00 | 0.00 | 0.00 | 92 | 1011.7 |
| 20260507105055 | 35 | 202 | 1.7 | 1.7 | 0.00 | 0.00 | 0.00 | 92 | 1011.7 |
| 20260507104553 | 35 | 184 | 0.9 | 0.9 | 0.00 | 0.00 | 0.00 | 92 | 1011.7 |
| 20260507104049 | 36 | 195 | 1.7 | 1.7 | 0.00 | 0.00 | 0.00 | 93 | 1012.0 |
| 20260507103545 | 35 | 216 | 2.6 | 2.6 | 0.00 | 0.00 | 0.00 | 93 | 1011.9 |
| 20260507103042 | 35 | 247 | 0.9 | 1.7 | 0.00 | 0.00 | 0.00 | 93 | 1012.0 |
| 20260507102539 | 35 | 200 | 0.9 | 0.9 | 0.00 | 0.00 | 0.00 | 93 | 1012.3 |
| 20260507102035 | 36 | 218 | 3.5 | 4.3 | 0.00 | 0.00 | 0.00 | 93 | 1012.5 |
| 20260507101530 | 36 | 217 | 3.5 | 4.3 | 0.00 | 0.00 | 0.00 | 92 | 1012.7 |
| 20260507101027 | 36 | 181 | 2.6 | 4.3 | 0.00 | 0.00 | 0.00 | 92 | 1012.3 |
| 20260507100525 | 36 | 256 | 2.6 | 2.6 | 0.00 | 0.00 | 0.00 | 92 | 1012.7 |
| 20260507100023 | 36 | 196 | 1.7 | 1.7 | 0.00 | 0.00 | 0.00 | 92 | 1012.9 |
| 20260507095520 | 36 | 208 | 0.9 | 0.9 | 0.00 | 0.00 | 0.00 | 92 | 1012.8 |
| 20260507095017 | 36 | 208 | 3.5 | 4.3 | 0.00 | 0.00 | 0.00 | 92 | 1012.8 |
| 20260507094513 | 36 | 125 | 1.7 | 4.3 | 0.00 | 0.00 | 0.00 | 92 | 1013.0 |
| 20260507094010 | 36 | 244 | 0.9 | 1.7 | 0.00 | 0.00 | 0.00 | 92 | 1012.9 |
| 20260507093507 | 36 | 278 | 2.6 | 5.2 | 0.00 | 0.00 | 0.00 | 92 | 1013.0 |
| 20260507093006 | 36 | 235 | 2.6 | 2.6 | 0.00 | 0.00 | 0.00 | 92 | 1012.9 |
| 20260507092502 | 36 | 250 | 0.9 | 1.7 | 0.00 | 0.00 | 0.00 | 92 | 1013.1 |
| 20260507091959 | 36 | 193 | 2.6 | 2.6 | 0.00 | 0.00 | 0.00 | 91 | 1013.1 |
| 20260507091455 | 37 | 185 | 0.9 | 1.7 | 0.00 | 0.00 | 0.00 | 91 | 1013.1 |
| 20260507090951 | 37 | 180 | 0.9 | 1.7 | 0.00 | 0.00 | 0.00 | 92 | 1013.3 |
| 20260507090447 | 37 | 207 | 1.7 | 1.7 | 0.00 | 0.00 | 0.00 | 92 | 1013.3 |
| 20260507085944 | 37 | 217 | 3.5 | 4.3 | 0.00 | 0.00 | 0.00 | 91 | 1013.2 |
| 20260507085441 | 37 | 205 | 2.6 | 2.6 | 0.00 | 0.00 | 0.00 | 91 | 1013.3 |
| 20260507084933 | 37 | 200 | 2.6 | 2.6 | 0.00 | 0.00 | 0.00 | 91 | 1013.4 |
| 20260507084430 | 37 | 195 | 1.7 | 4.3 | 0.00 | 0.00 | 0.00 | 91 | 1013.4 |
| 20260507083927 | 37 | 186 | 0.9 | 0.9 | 0.00 | 0.00 | 0.00 | 91 | 1013.6 |
| 20260507083423 | 37 | 202 | 1.7 | 2.6 | 0.00 | 0.00 | 0.00 | 92 | 1013.7 |
| 20260507082919 | 37 | 205 | 1.7 | 2.6 | 0.00 | 0.00 | 0.00 | 92 | 1013.4 |
| 20260507082415 | 37 | 195 | 1.7 | 1.7 | 0.00 | 0.00 | 0.00 | 92 | 1013.6 |
| 20260507081912 | 37 | 148 | 1.7 | 1.7 | 0.00 | 0.00 | 0.00 | 92 | 1013.4 |
| 20260507081408 | 37 | 207 | 2.6 | 2.6 | 0.00 | 0.00 | 0.00 | 92 | 1013.6 |
| 20260507080905 | 37 | 248 | 1.7 | 2.6 | 0.00 | 0.00 | 0.00 | 92 | 1013.7 |
| 20260507080401 | 37 | 191 | 0.9 | 0.9 | 0.00 | 0.00 | 0.00 | 92 | 1013.8 |
| 20260507075857 | 37 | 177 | 0.9 | 1.7 | 0.00 | 0.00 | 0.00 | 92 | 1013.7 |
| 20260507075353 | 37 | 187 | 1.7 | 1.7 | 0.00 | 0.00 | 0.00 | 92 | 1013.8 |
| 20260507074849 | 37 | 197 | 0.9 | 1.7 | 0.00 | 0.00 | 0.00 | 92 | 1014.2 |
| 20260507074347 | 37 | 188 | 1.7 | 2.6 | 0.00 | 0.00 | 0.00 | 92 | 1014.1 |
| 20260507073844 | 37 | 187 | 1.7 | 1.7 | 0.00 | 0.00 | 0.00 | 92 | 1014.1 |
| 20260507073340 | 37 | 201 | 0.9 | 2.6 | 0.00 | 0.00 | 0.00 | 92 | 1014.3 |
| 20260507072838 | 37 | 206 | 0.9 | 2.6 | 0.00 | 0.00 | 0.00 | 92 | 1014.5 |
| 20260507072335 | 37 | 152 | 0.9 | 1.7 | 0.00 | 0.00 | 0.00 | 91 | 1014.4 |
| 20260507071832 | 38 | 170 | 1.7 | 1.7 | 0.00 | 0.00 | 0.00 | 91 | 1014.5 |
| 20260507071329 | 38 | 145 | 0.9 | 0.9 | 0.00 | 0.00 | 0.00 | 91 | 1014.7 |
| 20260507070825 | 38 | 142 | 0.9 | 1.7 | 0.00 | 0.00 | 0.00 | 91 | 1015.1 |
| 20260507070323 | 38 | 213 | 2.6 | 2.6 | 0.00 | 0.00 | 0.00 | 91 | 1015.2 |
| 20260507065820 | 39 | 183 | 0.9 | 1.7 | 0.00 | 0.00 | 0.00 | 90 | 1015.2 |
| 20260507065316 | 39 | 178 | 0.9 | 1.7 | 0.00 | 0.00 | 0.00 | 90 | 1015.0 |
| 20260507064814 | 39 | 175 | 0.9 | 0.9 | 0.00 | 0.00 | 0.00 | 90 | 1015.1 |
| 20260507064312 | 39 | 183 | 1.7 | 1.7 | 0.00 | 0.00 | 0.00 | 90 | 1015.2 |
| 20260507063810 | 39 | 198 | 2.6 | 2.6 | 0.00 | 0.00 | 0.00 | 89 | 1015.1 |
| 20260507063306 | 39 | 208 | 2.6 | 2.6 | 0.00 | 0.00 | 0.00 | 89 | 1015.2 |
| 20260507062803 | 39 | 207 | 1.7 | 2.6 | 0.00 | 0.00 | 0.00 | 89 | 1015.3 |
| 20260507062300 | 39 | 138 | 0.9 | 1.7 | 0.00 | 0.00 | 0.00 | 89 | 1015.3 |
| 20260507061758 | 39 | 216 | 3.5 | 4.3 | 0.00 | 0.00 | 0.00 | 89 | 1015.2 |
| 20260507061255 | 39 | 213 | 2.6 | 4.3 | 0.00 | 0.00 | 0.00 | 89 | 1015.2 |
| 20260507060754 | 39 | 139 | 0.9 | 0.9 | 0.00 | 0.00 | 0.00 | 89 | 1015.3 |
| 20260507060250 | 39 | 175 | 1.7 | 1.7 | 0.00 | 0.00 | 0.00 | 89 | 1015.3 |
| 20260507055747 | 39 | 215 | 1.7 | 4.3 | 0.00 | 0.00 | 0.00 | 89 | 1015.5 |
| 20260507055242 | 39 | 139 | 0.0 | 0.9 | 0.00 | 0.00 | 0.00 | 89 | 1015.5 |
| 20260507054738 | 40 | 174 | 0.9 | 1.7 | 0.00 | 0.00 | 0.00 | 88 | 1015.6 |
| 20260507054235 | 40 | 163 | 0.9 | 1.7 | 0.00 | 0.00 | 0.00 | 88 | 1015.5 |
| 20260507053733 | 40 | 163 | 1.7 | 1.7 | 0.00 | 0.00 | 0.00 | 88 | 1015.9 |
| 20260507053230 | 40 | 215 | 2.6 | 2.6 | 0.00 | 0.00 | 0.00 | 88 | 1015.6 |
| 20260507052729 | 40 | 212 | 2.6 | 2.6 | 0.00 | 0.00 | 0.00 | 87 | 1015.7 |
| 20260507052225 | 40 | 190 | 0.9 | 0.9 | 0.00 | 0.00 | 0.00 | 87 | 1015.8 |
| 20260507051723 | 40 | 203 | 2.6 | 2.6 | 0.00 | 0.00 | 0.00 | 87 | 1015.7 |
| 20260507051220 | 41 | 161 | 0.9 | 0.9 | 0.00 | 0.00 | 0.00 | 87 | 1015.4 |
| 20260507050716 | 41 | 194 | 0.9 | 1.7 | 0.00 | 0.00 | 0.00 | 86 | 1015.7 |
| 20260507050214 | 41 | 169 | 0.9 | 0.9 | 0.00 | 0.00 | 0.00 | 86 | 1015.7 |
| 20260507045710 | 41 | 231 | 1.7 | 1.7 | 0.00 | 0.00 | 0.00 | 85 | 1015.7 |
| 20260507045206 | 41 | 191 | 2.6 | 2.6 | 0.00 | 0.00 | 0.00 | 85 | 1015.6 |
| 20260507044703 | 41 | 223 | 2.6 | 2.6 | 0.00 | 0.00 | 0.00 | 85 | 1015.8 |
| 20260507044200 | 41 | 197 | 2.6 | 2.6 | 0.00 | 0.00 | 0.00 | 85 | 1016.0 |
| 20260507043656 | 41 | 190 | 2.6 | 2.6 | 0.00 | 0.00 | 0.00 | 85 | 1016.0 |
| 20260507043153 | 41 | 225 | 2.6 | 4.3 | 0.00 | 0.00 | 0.00 | 84 | 1015.7 |
| 20260507042650 | 41 | 241 | 2.6 | 2.6 | 0.00 | 0.00 | 0.00 | 84 | 1015.9 |
| 20260507042144 | 41 | 184 | 0.9 | 1.7 | 0.00 | 0.00 | 0.00 | 83 | 1016.1 |
| 20260507041642 | 42 | 200 | 1.7 | 1.7 | 0.00 | 0.00 | 0.00 | 82 | 1016.0 |
| 20260507041138 | 42 | 195 | 2.6 | 2.6 | 0.00 | 0.00 | 0.00 | 81 | 1015.9 |
| 20260507040636 | 42 | 190 | 1.7 | 1.7 | 0.00 | 0.00 | 0.00 | 80 | 1015.9 |
| 20260507040132 | 42 | 189 | 1.7 | 1.7 | 0.00 | 0.00 | 0.00 | 79 | 1016.3 |
| 20260507035628 | 42 | 169 | 0.9 | 1.7 | 0.00 | 0.00 | 0.00 | 78 | 1016.2 |
| 20260507035124 | 42 | 180 | 1.7 | 1.7 | 0.00 | 0.00 | 0.00 | 76 | 1016.2 |
| 20260507034621 | 42 | 191 | 0.9 | 0.9 | 0.00 | 0.00 | 0.00 | 75 | 1016.3 |
| 20260507034118 | 42 | 179 | 0.9 | 0.9 | 0.00 | 0.00 | 0.00 | 74 | 1016.2 |
| 20260507033617 | 43 | 154 | 0.9 | 0.9 | 0.00 | 0.00 | 0.00 | 73 | 1016.5 |
| 20260507033114 | 43 | 154 | 0.9 | 0.9 | 0.00 | 0.00 | 0.00 | 72 | 1016.3 |
| 20260507032611 | 43 | 182 | 2.6 | 2.6 | 0.00 | 0.00 | 0.00 | 72 | 1016.3 |
| 20260507032107 | 43 | 194 | 0.0 | 0.9 | 0.00 | 0.00 | 0.00 | 71 | 1016.6 |
| 20260507031603 | 43 | 192 | 0.9 | 0.9 | 0.00 | 0.00 | 0.00 | 71 | 1016.3 |
| 20260507031100 | 44 | 117 | 0.0 | 0.0 | 0.00 | 0.00 | 0.00 | 70 | 1016.5 |
| 20260507030557 | 44 | 187 | 0.9 | 0.9 | 0.00 | 0.00 | 0.00 | 70 | 1016.3 |
| 20260507030055 | 44 | 169 | 1.7 | 1.7 | 0.00 | 0.00 | 0.00 | 69 | 1016.7 |
| 20260507025552 | 44 | 182 | 2.6 | 2.6 | 0.00 | 0.00 | 0.00 | 69 | 1016.3 |
| 20260507025049 | 44 | 204 | 1.7 | 1.7 | 0.00 | 0.00 | 0.00 | 69 | 1016.2 |
| 20260507024547 | 44 | 174 | 1.7 | 1.7 | 0.00 | 0.00 | 0.00 | 68 | 1016.1 |
| 20260507024043 | 44 | 189 | 0.9 | 0.9 | 0.00 | 0.00 | 0.00 | 68 | 1016.3 |
| 20260507023539 | 44 | 169 | 0.0 | 0.9 | 0.00 | 0.00 | 0.00 | 67 | 1016.2 |
| 20260507023037 | 45 | 191 | 0.9 | 0.9 | 0.00 | 0.00 | 0.00 | 66 | 1016.3 |
| 20260507022533 | 45 | 162 | 0.9 | 0.9 | 0.00 | 0.00 | 0.00 | 66 | 1015.9 |
| 20260507022029 | 45 | 159 | 1.7 | 2.6 | 0.00 | 0.00 | 0.00 | 65 | 1016.1 |
| 20260507021525 | 45 | 205 | 1.7 | 1.7 | 0.00 | 0.00 | 0.00 | 65 | 1016.2 |
| 20260507021022 | 45 | 194 | 0.9 | 1.7 | 0.00 | 0.00 | 0.00 | 65 | 1016.1 |
| 20260507020520 | 46 | 166 | 0.0 | 0.0 | 0.00 | 0.00 | 0.00 | 65 | 1016.0 |
| 20260507020016 | 46 | 162 | 0.0 | 0.9 | 0.00 | 0.00 | 0.00 | 65 | 1016.5 |
| 20260507015515 | 46 | 134 | 0.9 | 0.9 | 0.00 | 0.00 | 0.00 | 64 | 1016.3 |
| 20260507015012 | 46 | 176 | 0.9 | 0.9 | 0.00 | 0.00 | 0.00 | 64 | 1016.2 |
| 20260507014508 | 47 | 156 | 0.9 | 0.9 | 0.00 | 0.00 | 0.00 | 62 | 1016.0 |
| 20260507014004 | 47 | 176 | 0.9 | 0.9 | 0.00 | 0.00 | 0.00 | 61 | 1016.3 |
| 20260507013500 | 48 | 166 | 0.0 | 0.9 | 0.00 | 0.00 | 0.00 | 60 | 1016.1 |
| 20260507012957 | 48 | 155 | 0.9 | 0.9 | 0.00 | 0.00 | 0.00 | 59 | 1016.1 |
| 20260507012454 | 48 | 205 | 1.7 | 1.7 | 0.00 | 0.00 | 0.00 | 59 | 1016.1 |
| 20260507011951 | 48 | 184 | 1.7 | 1.7 | 0.00 | 0.00 | 0.00 | 59 | 1016.0 |
| 20260507011449 | 49 | 153 | 0.9 | 0.9 | 0.00 | 0.00 | 0.00 | 58 | 1016.3 |
| 20260507010944 | 49 | 220 | 2.6 | 2.6 | 0.00 | 0.00 | 0.00 | 58 | 1016.1 |
| 20260507010439 | 50 | 165 | 0.9 | 0.9 | 0.00 | 0.00 | 0.00 | 58 | 1016.1 |
| 20260507005936 | 50 | 176 | 1.7 | 2.6 | 0.00 | 0.00 | 0.00 | 60 | 1016.0 |
| 20260507005433 | 50 | 233 | 2.6 | 2.6 | 0.00 | 0.00 | 0.00 | 60 | 1016.1 |
| 20260507004930 | 51 | 158 | 1.7 | 2.6 | 0.00 | 0.00 | 0.00 | 59 | 1016.1 |
| 20260507004427 | 51 | 191 | 1.7 | 2.6 | 0.00 | 0.00 | 0.00 | 59 | 1016.1 |
| 20260507003924 | 51 | 205 | 1.7 | 1.7 | 0.00 | 0.00 | 0.00 | 61 | 1016.0 |
| 20260507003418 | 51 | 280 | 2.6 | 2.6 | 0.00 | 0.00 | 0.00 | 60 | 1016.0 |
| 20260507002914 | 51 | 229 | 4.3 | 5.2 | 0.00 | 0.00 | 0.00 | 60 | 1016.0 |
| 20260507002410 | 52 | 220 | 4.3 | 6.1 | 0.00 | 0.00 | 0.00 | 59 | 1016.0 |
| 20260507001908 | 52 | 211 | 1.7 | 1.7 | 0.00 | 0.00 | 0.00 | 57 | 1016.0 |
| 20260507001404 | 52 | 192 | 2.6 | 2.6 | 0.00 | 0.00 | 0.00 | 57 | 1016.0 |
| 20260507000902 | 52 | 278 | 1.7 | 2.6 | 0.00 | 0.00 | 0.00 | 58 | 1016.1 |
| 20260507000357 | 53 | 252 | 2.6 | 2.6 | 0.00 | 0.00 | 0.00 | 55 | 1016.2 |
| 20260506235853 | 52 | 200 | 1.7 | 1.7 | 0.00 | 0.00 | 0.00 | 55 | 1016.1 |
| 20260506235350 | 53 | 284 | 2.6 | 4.3 | 0.00 | 0.00 | 0.00 | 54 | 1016.2 |
| 20260506234840 | 54 | 237 | 2.6 | 5.2 | 0.00 | 0.00 | 0.00 | 52 | 1016.2 |
| 20260506234338 | 54 | 214 | 2.6 | 2.6 | 0.00 | 0.00 | 0.00 | 50 | 1016.1 |
| 20260506233835 | 54 | 279 | 2.6 | 4.3 | 0.00 | 0.00 | 0.00 | 54 | 1016.3 |
| 20260506233331 | 55 | 323 | 4.3 | 5.2 | 0.00 | 0.00 | 0.00 | 51 | 1016.2 |
| 20260506232828 | 55 | 297 | 3.5 | 5.2 | 0.00 | 0.00 | 0.00 | 53 | 1016.2 |
| 20260506232323 | 55 | 243 | 2.6 | 2.6 | 0.00 | 0.00 | 0.00 | 53 | 1016.5 |
| 20260506231820 | 54 | 193 | 2.6 | 4.3 | 0.00 | 0.00 | 0.00 | 54 | 1016.6 |
| 20260506231318 | 52 | 332 | 1.7 | 1.7 | 0.00 | 0.00 | 0.00 | 56 | 1016.5 |
| 20260506230815 | 52 | 231 | 4.3 | 5.2 | 0.00 | 0.00 | 0.00 | 55 | 1016.3 |
| 20260506230312 | 52 | 214 | 2.6 | 2.6 | 0.00 | 0.00 | 0.00 | 56 | 1016.6 |
| 20260506225808 | 52 | 226 | 4.3 | 5.2 | 0.00 | 0.00 | 0.00 | 55 | 1016.3 |
| 20260506225306 | 52 | 237 | 2.6 | 2.6 | 0.00 | 0.00 | 0.00 | 52 | 1016.7 |
| 20260506224802 | 52 | 267 | 1.7 | 2.6 | 0.00 | 0.00 | 0.00 | 52 | 1016.6 |
| 20260506224259 | 53 | 220 | 1.7 | 2.6 | 0.00 | 0.00 | 0.00 | 49 | 1016.6 |
| 20260506223755 | 53 | 219 | 3.5 | 4.3 | 0.00 | 0.00 | 0.00 | 50 | 1016.6 |
| 20260506223251 | 53 | 261 | 2.6 | 2.6 | 0.00 | 0.00 | 0.00 | 49 | 1016.8 |
| 20260506222748 | 53 | 222 | 2.6 | 2.6 | 0.00 | 0.00 | 0.00 | 49 | 1016.7 |
| 20260506222244 | 53 | 112 | 2.6 | 2.6 | 0.00 | 0.00 | 0.00 | 49 | 1016.5 |
| 20260506221742 | 53 | 272 | 0.9 | 0.9 | 0.00 | 0.00 | 0.00 | 49 | 1016.6 |
| 20260506221240 | 53 | 268 | 3.5 | 4.3 | 0.00 | 0.00 | 0.00 | 51 | 1016.8 |
| 20260506220731 | 53 | 168 | 0.9 | 0.9 | 0.00 | 0.00 | 0.00 | 53 | 1016.7 |
| 20260506220231 | 53 | 267 | 2.6 | 2.6 | 0.00 | 0.00 | 0.00 | 51 | 1016.9 |
| 20260506215723 | 53 | 201 | 0.0 | 0.0 | 0.00 | 0.00 | 0.00 | 51 | 1016.9 |
| 20260506215219 | 53 | 263 | 0.9 | 1.7 | 0.00 | 0.00 | 0.00 | 50 | 1017.1 |
| 20260506214715 | 53 | 266 | 2.6 | 4.3 | 0.00 | 0.00 | 0.00 | 51 | 1016.9 |
| 20260506214213 | 54 | 351 | 0.9 | 0.9 | 0.00 | 0.00 | 0.00 | 49 | 1016.9 |
| 20260506213711 | 54 | 207 | 1.7 | 2.6 | 0.00 | 0.00 | 0.00 | 50 | 1017.0 |
| 20260506213208 | 53 | 203 | 1.7 | 1.7 | 0.00 | 0.00 | 0.00 | 50 | 1017.1 |
| 20260506212705 | 52 | 209 | 2.6 | 4.3 | 0.00 | 0.00 | 0.00 | 53 | 1017.0 |
| 20260506212200 | 52 | 142 | 0.0 | 0.9 | 0.00 | 0.00 | 0.00 | 52 | 1017.1 |
| 20260506211656 | 52 | 190 | 0.9 | 1.7 | 0.00 | 0.00 | 0.00 | 54 | 1017.2 |
| 20260506211153 | 51 | 195 | 1.7 | 1.7 | 0.00 | 0.00 | 0.00 | 57 | 1017.3 |
| 20260506210649 | 51 | 225 | 2.6 | 2.6 | 0.00 | 0.00 | 0.00 | 55 | 1017.4 |
| 20260506210146 | 51 | 226 | 2.6 | 2.6 | 0.00 | 0.00 | 0.00 | 56 | 1017.4 |
| 20260506205643 | 51 | 245 | 1.7 | 1.7 | 0.00 | 0.00 | 0.00 | 54 | 1017.9 |
| 20260506205138 | 50 | 186 | 0.9 | 1.7 | 0.00 | 0.00 | 0.00 | 56 | 1017.6 |
| 20260506204636 | 51 | 222 | 1.7 | 1.7 | 0.00 | 0.00 | 0.00 | 56 | 1017.9 |
| 20260506204133 | 51 | 274 | 2.6 | 4.3 | 0.00 | 0.00 | 0.00 | 53 | 1017.9 |
| 20260506203631 | 52 | 203 | 1.7 | 2.6 | 0.00 | 0.00 | 0.00 | 51 | 1017.9 |
| 20260506203128 | 52 | 221 | 4.3 | 5.2 | 0.00 | 0.00 | 0.00 | 51 | 1017.7 |
| 20260506202626 | 52 | 211 | 2.6 | 2.6 | 0.00 | 0.00 | 0.00 | 50 | 1018.0 |
| 20260506202122 | 51 | 96 | 0.9 | 0.9 | 0.00 | 0.00 | 0.00 | 46 | 1017.9 |
| 20260506201619 | 52 | 260 | 1.7 | 1.7 | 0.00 | 0.00 | 0.00 | 47 | 1018.1 |
| 20260506201115 | 53 | 183 | 2.6 | 4.3 | 0.00 | 0.00 | 0.00 | 46 | 1018.0 |
| 20260506200612 | 54 | 202 | 3.5 | 4.3 | 0.00 | 0.00 | 0.00 | 46 | 1018.0 |